Patoka, Illinois
Current Conditions -  °F | °C
As of 3:15 PM on Sunday 23 Nov 2014 (Local Time) from KENL Reporting Station
Light Rain Light Rain  
Wind Chill: 51°   Ceiling: 600
Heat Index: 51°   Visibility: 5mi
Dew Point: 49°   Wind: 7mph
Humidity: 92%   Direction: 120°ESE
Pressure: 29.39"   Gusts: NA
Location:  38.76°N, 89.1°W
Report Text: KENL 232115Z AUTO 12006KT 5SM -RA BKN006 BKN018 OVC023 11/10 A2939 RMK AO2 P0002 T01080095
Loading
Personal Weather Stations






























Interactive Weather Map New forecast layout! Learn more

10-Day Weather Forecast

Advertisements
Track Severe Weather on mobile